Time;durP1;ratioP1;P1;durP2;ratioP2;P2;SDS_P1;SDS_P2;PMS_P1;PMS_P2;Temp;Humidity;BMP_temperature;BMP_pressure;BME280_temperature;BME280_humidity;BME280_pressure;Samples;Min_cycle;Max_cycle;Signal;HPM_P1;HPM_P2
2021/04/19 00:02:08;;;;;;;;;;;;;;;1.70;100.00;99732.09;5074423;28;19951;-75
2021/04/19 00:04:35;;;;;;;;;;;;;;;1.59;100.00;99739.25;5074232;28;19968;-75
2021/04/19 00:07:03;;;;;;;;;;;;;;;1.54;100.00;99732.06;5056472;28;19924;-76
2021/04/19 00:09:30;;;;;;;;;;;;;;;1.42;100.00;99721.03;5073984;28;20042;-76
2021/04/19 00:11:57;;;;;;;;;;;;;;;1.36;100.00;99727.94;5073836;28;19932;-76
2021/04/19 00:14:23;;;;;;;;;;;;;;;1.35;100.00;99725.53;5073948;28;19932;-76
2021/04/19 00:16:50;;;;;;;;;;;;;;;1.29;100.00;99722.22;5056121;28;19928;-76
2021/04/19 00:19:17;;;;;;;;;;;;;;;1.27;100.00;99724.50;5073933;28;19924;-76
2021/04/19 00:21:44;;;;;;;;;;;;;;;1.29;100.00;99722.22;5073794;28;19936;-76
2021/04/19 00:24:10;;;;;;;;;;;;;;;1.20;100.00;99721.53;5074007;28;19924;-76
2021/04/19 00:26:37;;;;;;;;;;;;;;;1.37;100.00;99715.78;5073378;28;19936;-76
2021/04/19 00:29:04;;;;;;;;;;;;;;;1.31;100.00;99714.41;5073879;28;19958;-75
2021/04/19 00:31:31;;;;;;;;;;;;;;;1.20;100.00;99710.53;5073685;28;19932;-75
2021/04/19 00:33:59;;;;;;;;;;;;;;;1.15;100.00;99715.47;5070477;28;20252;-76
2021/04/19 00:36:26;;;;;;;;;;;;;;;0.83;100.00;99708.97;5036197;28;19983;-75
2021/04/19 00:38:52;;;;;;;;;;;;;;;0.80;100.00;99704.16;5053418;28;19925;-76
2021/04/19 00:41:19;;;;;;;;;;;;;;;0.91;100.00;99705.25;5053373;28;20304;-76
2021/04/19 00:43:46;;;;;;;;;;;;;;;0.99;100.00;99707.09;5035687;28;19925;-76
2021/04/19 00:46:13;;;;;;;;;;;;;;;0.92;100.00;99700.56;5035721;28;19932;-76
2021/04/19 00:48:40;;;;;;;;;;;;;;;0.85;100.00;99700.34;5053320;28;19929;-76
2021/04/19 00:51:07;;;;;;;;;;;;;;;0.89;100.00;99698.50;5035659;28;19925;-75
2021/04/19 00:53:34;;;;;;;;;;;;;;;0.82;100.00;99696.31;5053193;28;19925;-75
2021/04/19 00:56:01;;;;;;;;;;;;;;;0.83;100.00;99695.19;5053226;28;19932;-76
2021/04/19 00:58:31;;;;;;;;;;;;;;;0.93;100.00;99686.47;5053315;28;20273;-76
2021/04/19 01:00:59;;;;;;;;;;;;;;;0.87;100.00;99687.84;5052885;28;20315;-76
2021/04/19 01:03:27;;;;;;;;;;;;;;;0.82;100.00;99693.56;5035834;28;19999;-76
2021/04/19 01:05:55;;;;;;;;;;;;;;;0.69;100.00;99686.47;5035287;28;20019;-76
2021/04/19 01:08:23;;;;;;;;;;;;;;;0.64;100.00;99692.19;5052756;28;20347;-76
2021/04/19 01:10:50;;;;;;;;;;;;;;;0.57;100.00;99682.91;5035283;28;19979;-75
2021/04/19 01:13:19;;;;;;;;;;;;;;;0.48;100.00;99687.72;5035327;28;20296;-76
2021/04/19 01:15:46;;;;;;;;;;;;;;;0.41;100.00;99685.53;5052922;28;19931;-75
2021/04/19 01:18:13;;;;;;;;;;;;;;;0.53;100.00;99677.28;5034973;28;19925;-76
2021/04/19 01:20:42;;;;;;;;;;;;;;;0.58;100.00;99679.81;5034963;28;19932;-76
2021/04/19 01:23:10;;;;;;;;;;;;;;;0.47;100.00;99678.66;5034733;28;19925;-76
2021/04/19 01:25:37;;;;;;;;;;;;;;;0.47;100.00;99672.38;5052866;28;20033;-76
2021/04/19 01:28:07;;;;;;;;;;;;;;;0.43;100.00;99676.94;5034938;28;19925;-76
2021/04/19 01:30:36;;;;;;;;;;;;;;;0.41;100.00;99668.25;5052755;28;19924;-76
2021/04/19 01:33:04;;;;;;;;;;;;;;;0.39;100.00;99682.34;5035035;28;19925;-76
2021/04/19 01:35:33;;;;;;;;;;;;;;;0.30;100.00;99678.88;5049625;28;20364;-76
2021/04/19 01:38:03;;;;;;;;;;;;;;;0.32;100.00;99676.56;5051083;28;19956;-76
2021/04/19 01:40:30;;;;;;;;;;;;;;;0.30;100.00;99678.06;5052568;28;19925;-76
2021/04/19 01:42:58;;;;;;;;;;;;;;;0.18;100.00;99678.88;5051522;28;19936;-76
2021/04/19 01:45:25;;;;;;;;;;;;;;;0.08;100.00;99682.03;5051071;28;20376;-76
2021/04/19 01:47:54;;;;;;;;;;;;;;;0.13;100.00;99673.56;5052523;28;19932;-76
2021/04/19 01:50:22;;;;;;;;;;;;;;;0.12;100.00;99677.47;5052308;28;19932;-76
2021/04/19 01:52:52;;;;;;;;;;;;;;;0.07;100.00;99677.69;5052240;28;20296;-76
2021/04/19 01:55:20;;;;;;;;;;;;;;;0.03;100.00;99680.28;5052435;28;20288;-76
2021/04/19 01:57:55;;;;;;;;;;;;;;;0.01;100.00;99681.78;5051132;28;19925;-76
2021/04/19 02:00:23;;;;;;;;;;;;;;;-0.02;100.00;99687.97;5052189;28;19924;-76
2021/04/19 02:03:16;;;;;;;;;;;;;;;-0.01;100.00;99684.06;5051170;28;20265;-76
2021/04/19 02:06:02;;;;;;;;;;;;;;;-0.08;100.00;99679.09;5051108;28;19948;-76
2021/04/19 02:08:51;;;;;;;;;;;;;;;-0.12;100.00;99677.38;5039645;28;19940;-76
2021/04/19 02:11:37;;;;;;;;;;;;;;;-0.02;100.00;99677.75;5044375;28;19925;-76
2021/04/19 02:14:23;;;;;;;;;;;;;;;-0.10;100.00;99675.09;5052398;28;19932;-76
2021/04/19 02:17:06;;;;;;;;;;;;;;;-0.18;100.00;99684.22;5053151;28;19924;-76
2021/04/19 02:19:39;;;;;;;;;;;;;;;-0.13;100.00;99684.03;5054869;28;19925;-75
2021/04/19 02:22:21;;;;;;;;;;;;;;;-0.17;100.00;99683.09;5056299;28;19925;-76
2021/04/19 02:24:52;;;;;;;;;;;;;;;-0.13;100.00;99681.28;5055008;28;20402;-75
2021/04/19 02:27:38;;;;;;;;;;;;;;;-0.25;100.00;99667.50;5055114;28;19925;-75
2021/04/19 02:30:08;;;;;;;;;;;;;;;-0.36;100.00;99677.28;5054782;28;19929;-76
2021/04/19 02:32:39;;;;;;;;;;;;;;;-0.36;100.00;99674.53;5056547;28;19924;-76
2021/04/19 02:35:11;;;;;;;;;;;;;;;-0.29;100.00;99672.06;5067180;28;19924;-76
2021/04/19 02:37:48;;;;;;;;;;;;;;;-0.23;100.00;99662.47;5032249;28;20009;-76
2021/04/19 02:40:15;;;;;;;;;;;;;;;-0.20;100.00;99670.03;5075848;28;19939;-76
2021/04/19 02:42:43;;;;;;;;;;;;;;;-0.23;100.00;99659.72;5063799;28;19925;-76
2021/04/19 02:45:12;;;;;;;;;;;;;;;-0.27;100.00;99665.09;5057979;28;19925;-76
2021/04/19 02:47:55;;;;;;;;;;;;;;;-0.27;100.00;99664.28;5058087;28;19925;-75
2021/04/19 02:50:33;;;;;;;;;;;;;;;-0.28;100.00;99652.50;5071656;28;19924;-75
2021/04/19 02:53:01;;;;;;;;;;;;;;;-0.42;100.00;99657.47;5064401;28;19924;-76
2021/04/19 02:55:29;;;;;;;;;;;;;;;-0.48;100.00;99663.50;5075416;28;20013;-76
2021/04/19 02:57:57;;;;;;;;;;;;;;;-0.53;100.00;99663.72;5062750;28;19931;-76
2021/04/19 03:00:26;;;;;;;;;;;;;;;-0.66;100.00;99656.56;5070256;28;20379;-76
2021/04/19 03:02:55;;;;;;;;;;;;;;;-0.59;100.00;99654.09;5075246;28;19925;-76
2021/04/19 03:05:22;;;;;;;;;;;;;;;-0.65;100.00;99658.97;5073175;28;19924;-76
2021/04/19 03:07:58;;;;;;;;;;;;;;;-0.70;100.00;99661.94;5073522;28;19943;-76
2021/04/19 03:10:27;;;;;;;;;;;;;;;-0.76;100.00;99655.00;5075490;28;20399;-76
2021/04/19 03:12:55;;;;;;;;;;;;;;;-0.75;100.00;99653.09;5064604;28;20337;-76
2021/04/19 03:15:30;;;;;;;;;;;;;;;-0.75;100.00;99648.41;5066839;28;20101;-76
2021/04/19 03:18:14;;;;;;;;;;;;;;;-0.74;100.00;99650.00;5059372;28;20388;-76
2021/04/19 03:21:08;;;;;;;;;;;;;;;-0.81;100.00;99644.25;5074633;28;20342;-76
2021/04/19 03:24:05;;;;;;;;;;;;;;;-0.69;100.00;99651.75;5060180;28;20375;-76
2021/04/19 03:26:51;;;;;;;;;;;;;;;-0.73;100.00;99650.81;5062814;28;19924;-76
2021/04/19 03:29:21;;;;;;;;;;;;;;;-0.86;100.00;99647.19;5072629;28;19931;-76
2021/04/19 03:32:01;;;;;;;;;;;;;;;-0.95;100.00;99649.19;5047690;28;20023;-76
2021/04/19 03:34:31;;;;;;;;;;;;;;;-0.93;100.00;99640.63;5072705;28;20446;-76
2021/04/19 03:37:08;;;;;;;;;;;;;;;-0.90;100.00;99645.44;5054857;28;20384;-76
2021/04/19 03:39:38;;;;;;;;;;;;;;;-0.92;100.00;99648.53;5036698;28;19929;-75
2021/04/19 03:42:05;;;;;;;;;;;;;;;-0.96;100.00;99646.78;5054823;28;19928;-76
2021/04/19 03:44:37;;;;;;;;;;;;;;;-0.99;100.00;99639.22;5054477;28;19924;-76
2021/04/19 03:47:05;;;;;;;;;;;;;;;-0.93;100.00;99640.63;5037035;28;20300;-76
2021/04/19 03:49:50;;;;;;;;;;;;;;;-0.95;100.00;99642.91;5036442;28;19925;-75
2021/04/19 03:52:19;;;;;;;;;;;;;;;-0.98;100.00;99635.34;5054717;28;19932;-76
2021/04/19 03:54:47;;;;;;;;;;;;;;;-0.96;100.00;99635.81;5054448;28;19979;-76
2021/04/19 03:57:19;;;;;;;;;;;;;;;-1.00;100.00;99640.38;5036679;28;20406;-76
2021/04/19 03:59:51;;;;;;;;;;;;;;;-0.97;100.00;99628.72;5036688;28;20375;-76
2021/04/19 04:02:24;;;;;;;;;;;;;;;-0.94;100.00;99633.56;5036403;28;19929;-75
2021/04/19 04:04:59;;;;;;;;;;;;;;;-0.99;100.00;99636.47;5054162;28;19925;-75
2021/04/19 04:07:49;;;;;;;;;;;;;;;-1.11;100.00;99639.16;5036638;28;19932;-75
2021/04/19 04:10:20;;;;;;;;;;;;;;;-1.03;100.00;99635.56;5054018;28;19924;-76
2021/04/19 04:12:48;;;;;;;;;;;;;;;-1.07;100.00;99634.59;5036282;28;20002;-76
2021/04/19 04:15:18;;;;;;;;;;;;;;;-1.20;100.00;99630.19;5036127;28;19931;-76
2021/04/19 04:17:49;;;;;;;;;;;;;;;-1.27;100.00;99624.44;5036124;28;20384;-76
2021/04/19 04:20:26;;;;;;;;;;;;;;;-1.28;100.00;99625.53;5036229;28;20442;-76
2021/04/19 04:22:58;;;;;;;;;;;;;;;-1.48;100.00;99624.38;5054143;28;19946;-76
2021/04/19 04:25:32;;;;;;;;;;;;;;;-1.41;100.00;99624.66;5036295;28;19931;-76
2021/04/19 04:28:00;;;;;;;;;;;;;;;-1.37;100.00;99624.78;5036553;28;19925;-76
2021/04/19 04:30:30;;;;;;;;;;;;;;;-1.43;100.00;99626.94;5036166;28;20376;-76
2021/04/19 04:33:12;;;;;;;;;;;;;;;-1.41;100.00;99618.38;5035952;28;19932;-76
2021/04/19 04:35:44;;;;;;;;;;;;;;;-1.33;100.00;99623.78;5040361;28;19928;-76
2021/04/19 04:38:17;;;;;;;;;;;;;;;-1.39;100.00;99616.13;5059924;28;19932;-76
2021/04/19 04:40:49;;;;;;;;;;;;;;;-1.44;100.00;99624.53;5061187;28;20038;-76
2021/04/19 04:43:18;;;;;;;;;;;;;;;-1.51;100.00;99618.75;5073648;28;19924;-75
2021/04/19 04:45:46;;;;;;;;;;;;;;;-1.57;100.00;99614.56;5064742;28;19987;-76
2021/04/19 04:48:33;;;;;;;;;;;;;;;-1.47;100.00;99617.75;5072171;28;19931;-76
2021/04/19 04:51:04;;;;;;;;;;;;;;;-1.35;100.00;99622.53;5073767;28;19931;-75
2021/04/19 04:53:35;;;;;;;;;;;;;;;-1.38;100.00;99612.22;5073653;28;20386;-76
2021/04/19 04:56:03;;;;;;;;;;;;;;;-1.50;100.00;99614.88;5074151;28;19925;-76
2021/04/19 04:58:31;;;;;;;;;;;;;;;-1.57;100.00;99611.84;5074007;28;19924;-76
2021/04/19 05:00:58;;;;;;;;;;;;;;;-1.55;100.00;99623.28;5073760;28;19924;-76
2021/04/19 05:03:25;;;;;;;;;;;;;;;-1.54;100.00;99620.22;5073797;28;19932;-75
2021/04/19 05:05:52;;;;;;;;;;;;;;;-1.55;100.00;99617.81;5063239;28;19928;-76
2021/04/19 05:08:19;;;;;;;;;;;;;;;-1.62;100.00;99623.00;5059485;28;20042;-76
2021/04/19 05:10:46;;;;;;;;;;;;;;;-1.55;100.00;99624.09;5073950;28;19924;-76
2021/04/19 05:13:17;;;;;;;;;;;;;;;-1.49;100.00;99624.69;5073572;28;19971;-76
2021/04/19 05:15:44;;;;;;;;;;;;;;;-1.41;100.00;99623.84;5069679;28;19931;-75
2021/04/19 05:18:13;;;;;;;;;;;;;;;-1.34;100.00;99626.88;5073681;28;20260;-76
2021/04/19 05:20:40;;;;;;;;;;;;;;;-1.32;100.00;99630.91;5073345;28;20294;-76
2021/04/19 05:23:08;;;;;;;;;;;;;;;-1.28;100.00;99633.78;5044603;28;19931;-76
2021/04/19 05:25:35;;;;;;;;;;;;;;;-1.16;100.00;99631.09;5073224;28;19970;-76
2021/04/19 05:28:02;;;;;;;;;;;;;;;-0.95;100.00;99626.44;5073537;28;19929;-76
2021/04/19 05:30:29;;;;;;;;;;;;;;;-0.65;100.00;99630.75;5073371;28;19928;-76
2021/04/19 05:32:57;;;;;;;;;;;;;;;-0.41;100.00;99623.38;5069472;28;19928;-75
2021/04/19 05:35:24;;;;;;;;;;;;;;;-0.26;100.00;99624.72;5061605;28;20260;-76
2021/04/19 05:37:50;;;;;;;;;;;;;;;-0.09;100.00;99621.75;5035683;28;19924;-76
2021/04/19 05:40:19;;;;;;;;;;;;;;;0.14;100.00;99614.72;5035838;28;19948;-76
2021/04/19 05:42:46;;;;;;;;;;;;;;;0.27;100.00;99619.09;5053064;28;19929;-76
2021/04/19 05:45:17;;;;;;;;;;;;;;;0.52;100.00;99620.69;5035140;28;19971;-76
2021/04/19 05:47:44;;;;;;;;;;;;;;;0.47;100.00;99618.16;5051608;28;19929;-76
2021/04/19 05:50:12;;;;;;;;;;;;;;;0.34;100.00;99624.81;5016499;28;20276;-73
2021/04/19 05:52:39;;;;;;;;;;;;;;;0.30;100.00;99612.91;5051599;28;19979;-74
2021/04/19 05:55:06;;;;;;;;;;;;;;;0.64;100.00;99617.13;5032467;28;20015;-77
2021/04/19 05:57:45;;;;;;;;;;;;;;;1.39;100.00;99622.59;5048513;28;19971;-76
2021/04/19 06:00:15;;;;;;;;;;;;;;;1.55;100.00;99609.69;5032241;28;19944;-76
2021/04/19 06:02:51;;;;;;;;;;;;;;;1.48;100.00;99611.44;5047494;28;19932;-76
2021/04/19 06:05:21;;;;;;;;;;;;;;;1.13;100.00;99597.47;5048537;28;19933;-75
2021/04/19 06:07:52;;;;;;;;;;;;;;;0.84;100.00;99617.00;5057022;28;20391;-76
2021/04/19 06:10:45;;;;;;;;;;;;;;;1.23;100.00;99607.16;5051396;28;19932;-76
2021/04/19 06:13:27;;;;;;;;;;;;;;;2.08;100.00;99613.06;5035984;28;20414;-76
2021/04/19 06:15:54;;;;;;;;;;;;;;;2.40;100.00;99603.66;5031453;28;19925;-76
2021/04/19 06:18:23;;;;;;;;;;;;;;;2.89;100.00;99613.13;5048734;28;19928;-76
2021/04/19 06:20:51;;;;;;;;;;;;;;;2.92;100.00;99609.66;5015287;28;20367;-76
2021/04/19 06:23:18;;;;;;;;;;;;;;;3.50;100.00;99603.03;5049090;28;19925;-76
2021/04/19 06:25:45;;;;;;;;;;;;;;;3.81;100.00;99597.34;5048597;28;19931;-76
2021/04/19 06:28:12;;;;;;;;;;;;;;;4.01;100.00;99598.09;5049172;28;19951;-77
2021/04/19 06:30:41;;;;;;;;;;;;;;;4.06;100.00;99595.81;5048916;28;19924;-77
2021/04/19 06:33:09;;;;;;;;;;;;;;;4.44;100.00;99594.94;5048574;28;20387;-77
2021/04/19 06:35:36;;;;;;;;;;;;;;;5.05;100.00;99590.72;5035051;28;19928;-77
2021/04/19 06:38:03;;;;;;;;;;;;;;;5.90;100.00;99589.84;5069220;28;19925;-77
2021/04/19 06:40:29;;;;;;;;;;;;;;;6.83;100.00;99593.88;5068751;28;19975;-77
2021/04/19 06:42:57;;;;;;;;;;;;;;;7.19;100.00;99576.22;5070492;28;20368;-76
2021/04/19 06:45:23;;;;;;;;;;;;;;;7.72;100.00;99578.47;5055180;28;19924;-76
2021/04/19 06:47:53;;;;;;;;;;;;;;;8.61;100.00;99572.69;5066760;28;20016;-77
2021/04/19 06:50:27;;;;;;;;;;;;;;;9.01;100.00;99569.47;5059939;28;19929;-85
2021/04/19 06:53:10;;;;;;;;;;;;;;;9.59;100.00;99568.91;5036793;28;19928;-81
2021/04/19 06:55:38;;;;;;;;;;;;;;;10.03;100.00;99571.84;5064853;28;19924;-82
2021/04/19 06:58:05;;;;;;;;;;;;;;;10.49;100.00;99558.41;5065730;28;19925;-81
2021/04/19 07:00:32;;;;;;;;;;;;;;;10.84;100.00;99546.94;5067012;28;19924;-82
2021/04/19 07:03:02;;;;;;;;;;;;;;;11.36;100.00;99548.38;5043466;28;19975;-84
2021/04/19 07:05:29;;;;;;;;;;;;;;;11.57;100.00;99544.53;5066669;28;20294;-81
2021/04/19 07:07:59;;;;;;;;;;;;;;;11.47;100.00;99543.44;5072527;28;20015;-81
2021/04/19 07:10:26;;;;;;;;;;;;;;;11.58;100.00;99544.13;5063424;28;19983;-81
2021/04/19 07:12:54;;;;;;;;;;;;;;;11.65;100.00;99549.66;5072303;28;20381;-82
2021/04/19 07:15:21;;;;;;;;;;;;;;;11.94;100.00;99544.47;5072468;28;19928;-82
2021/04/19 07:17:49;;;;;;;;;;;;;;;12.25;100.00;99546.78;5056827;28;19933;-79
2021/04/19 07:20:16;;;;;;;;;;;;;;;12.43;100.00;99544.50;5054583;28;20257;-79
2021/04/19 07:22:44;;;;;;;;;;;;;;;12.59;100.00;99541.06;5072062;28;19935;-80
2021/04/19 07:25:11;;;;;;;;;;;;;;;12.72;100.00;99534.44;5071761;28;19924;-78
2021/04/19 07:27:38;;;;;;;;;;;;;;;12.91;100.00;99540.50;5072915;28;19974;-79
2021/04/19 07:30:08;;;;;;;;;;;;;;;12.98;100.00;99538.38;5072780;28;19973;-79
2021/04/19 07:32:38;;;;;;;;;;;;;;;13.48;100.00;99532.66;5053794;28;19932;-78
2021/04/19 07:35:06;;;;;;;;;;;;;;;13.54;100.00;99530.94;5062810;28;20027;-82
2021/04/19 07:37:33;;;;;;;;;;;;;;;13.54;100.00;99528.13;5060335;28;19931;-82
2021/04/19 07:40:02;;;;;;;;;;;;;;;13.52;100.00;99530.56;5071365;28;20027;-83
2021/04/19 07:42:29;;;;;;;;;;;;;;;13.39;100.00;99521.97;5045757;28;20388;-82
2021/04/19 07:44:56;;;;;;;;;;;;;;;13.69;100.00;99520.97;5078582;28;19924;-82
2021/04/19 07:47:27;;;;;;;;;;;;;;;14.26;100.00;99519.31;5042079;28;20280;-84
2021/04/19 07:50:05;;;;;;;;;;;;;;;14.33;100.00;99518.34;5072649;28;19928;-83
2021/04/19 07:52:36;;;;;;;;;;;;;;;14.61;100.00;99522.47;5054084;28;19925;-83
2021/04/19 07:55:05;;;;;;;;;;;;;;;14.32;100.00;99516.75;5054201;28;19929;-80
2021/04/19 07:57:33;;;;;;;;;;;;;;;14.30;100.00;99519.22;5073430;28;19929;-83
2021/04/19 08:00:00;;;;;;;;;;;;;;;13.98;100.00;99505.09;5044290;28;20274;-83
2021/04/19 08:02:26;;;;;;;;;;;;;;;13.72;100.00;99506.84;5040198;28;19924;-84
2021/04/19 08:04:54;;;;;;;;;;;;;;;13.50;100.00;99499.31;5050467;28;19925;-77
2021/04/19 08:07:26;;;;;;;;;;;;;;;13.83;100.00;99501.00;5052434;28;20023;-76
2021/04/19 08:10:06;;;;;;;;;;;;;;;13.46;100.00;99498.59;5059154;28;19929;-88
2021/04/19 08:12:34;;;;;;;;;;;;;;;14.13;100.00;99504.31;5069688;28;20396;-85
2021/04/19 08:15:02;;;;;;;;;;;;;;;13.84;100.00;99502.59;5054570;28;19959;-95
2021/04/19 08:17:30;;;;;;;;;;;;;;;14.20;100.00;99497.75;5021075;28;19952;-86
2021/04/19 08:19:59;;;;;;;;;;;;;;;14.55;100.00;99496.91;5038520;28;19960;-89
2021/04/19 08:22:29;;;;;;;;;;;;;;;14.62;100.00;99496.72;5020719;28;20382;-75
2021/04/19 08:25:10;;;;;;;;;;;;;;;15.10;100.00;99499.47;5071437;28;19971;-81
2021/04/19 08:27:37;;;;;;;;;;;;;;;15.10;100.00;99498.69;5069574;28;19929;-83
2021/04/19 08:30:05;;;;;;;;;;;;;;;14.30;100.00;99507.97;5052414;28;19925;-83
2021/04/19 08:32:32;;;;;;;;;;;;;;;13.96;100.00;99499.13;5070444;28;19932;-82
2021/04/19 08:34:59;;;;;;;;;;;;;;;13.23;100.00;99504.28;5054585;28;19932;-86
2021/04/19 08:37:27;;;;;;;;;;;;;;;13.10;100.00;99503.34;5029897;28;19971;-76
2021/04/19 08:39:58;;;;;;;;;;;;;;;13.73;100.00;99507.66;5034644;28;19925;-77
2021/04/19 08:42:26;;;;;;;;;;;;;;;14.45;100.00;99495.94;5051390;28;20028;-76
2021/04/19 08:44:56;;;;;;;;;;;;;;;14.78;100.00;99499.53;5047839;28;20376;-81
2021/04/19 08:47:27;;;;;;;;;;;;;;;15.29;100.00;99484.47;5028101;28;19929;-79
2021/04/19 08:49:55;;;;;;;;;;;;;;;14.72;100.00;99484.44;5035010;28;20443;-78
2021/04/19 08:52:22;;;;;;;;;;;;;;;14.64;100.00;99487.84;5018448;28;19925;-77
2021/04/19 08:54:49;;;;;;;;;;;;;;;14.33;100.00;99482.59;5053556;28;20371;-77
2021/04/19 08:57:41;;;;;;;;;;;;;;;14.23;100.00;99485.63;5053567;28;20154;-77
2021/04/19 09:00:08;;;;;;;;;;;;;;;13.88;100.00;99478.81;5036058;28;19932;-78
2021/04/19 09:02:34;;;;;;;;;;;;;;;14.68;100.00;99475.28;5048071;28;19932;-77
2021/04/19 09:05:01;;;;;;;;;;;;;;;14.80;100.00;99471.75;5039487;28;20038;-78
2021/04/19 09:07:29;;;;;;;;;;;;;;;14.13;100.00;99467.00;5052380;28;19932;-75
2021/04/19 09:09:55;;;;;;;;;;;;;;;13.60;100.00;99473.81;5053105;28;19929;-75
2021/04/19 09:12:23;;;;;;;;;;;;;;;13.67;100.00;99473.69;5035460;28;19963;-76
2021/04/19 09:14:50;;;;;;;;;;;;;;;13.82;100.00;99465.72;5052970;28;19929;-75
2021/04/19 09:17:24;;;;;;;;;;;;;;;13.97;100.00;99472.59;5034290;28;19929;-76
2021/04/19 09:19:57;;;;;;;;;;;;;;;13.91;100.00;99477.16;5052722;28;20000;-74
2021/04/19 09:22:24;;;;;;;;;;;;;;;13.84;100.00;99480.91;5053018;28;20386;-76
2021/04/19 09:25:06;;;;;;;;;;;;;;;13.42;100.00;99464.22;5052877;28;20014;-76
2021/04/19 09:27:56;;;;;;;;;;;;;;;13.08;100.00;99467.31;5052228;28;20007;-75
2021/04/19 09:30:26;;;;;;;;;;;;;;;12.88;100.00;99462.84;5053146;28;19929;-75
2021/04/19 09:33:02;;;;;;;;;;;;;;;12.58;100.00;99464.59;5052924;28;19932;-75
2021/04/19 09:35:42;;;;;;;;;;;;;;;12.98;100.00;99468.25;5068376;28;19938;-75
2021/04/19 09:38:12;;;;;;;;;;;;;;;12.95;100.00;99463.50;5072546;28;19932;-75
2021/04/19 09:40:59;;;;;;;;;;;;;;;12.56;100.00;99458.63;5072863;28;19970;-75
2021/04/19 09:43:37;;;;;;;;;;;;;;;12.73;100.00;99457.53;5045662;28;19932;-75
2021/04/19 09:46:06;;;;;;;;;;;;;;;13.21;100.00;99459.81;5073355;28;19968;-75
2021/04/19 09:48:38;;;;;;;;;;;;;;;13.16;100.00;99456.72;5044147;28;19924;-79
2021/04/19 09:51:12;;;;;;;;;;;;;;;13.49;100.00;99453.63;5060267;28;19975;-74
2021/04/19 09:53:40;;;;;;;;;;;;;;;13.87;100.00;99462.41;5069699;28;19947;-77
2021/04/19 09:56:09;;;;;;;;;;;;;;;13.95;100.00;99452.59;5069363;28;20011;-76
2021/04/19 09:58:37;;;;;;;;;;;;;;;13.68;100.00;99449.19;5066915;28;20358;-76
2021/04/19 10:04:21;;;;;;;;;;;;;;;13.63;100.00;99444.09;5059548;28;19968;-76
2021/04/19 10:06:52;;;;;;;;;;;;;;;13.81;100.00;99448.06;5050190;28;19932;-76
2021/04/19 10:09:22;;;;;;;;;;;;;;;13.33;100.00;99449.97;5065199;28;19924;-76
2021/04/19 10:12:01;;;;;;;;;;;;;;;13.33;100.00;99444.34;5068406;28;20019;-76
2021/04/19 10:14:52;;;;;;;;;;;;;;;13.56;100.00;99447.84;5037146;28;20405;-76
2021/04/19 10:17:41;;;;;;;;;;;;;;;13.79;100.00;99438.50;5051722;28;20448;-76
2021/04/19 10:20:33;;;;;;;;;;;;;;;13.65;100.00;99431.19;5066967;28;20023;-75
2021/04/19 10:23:23;;;;;;;;;;;;;;;13.77;100.00;99432.53;5050150;28;19925;-76
2021/04/19 10:26:05;;;;;;;;;;;;;;;13.80;100.00;99424.03;5061926;28;20271;-85
2021/04/19 10:28:54;;;;;;;;;;;;;;;13.49;100.00;99419.94;5052721;28;19959;-76
2021/04/19 10:31:37;;;;;;;;;;;;;;;13.23;100.00;99417.28;5063242;28;20074;-80
2021/04/19 10:34:26;;;;;;;;;;;;;;;13.69;100.00;99419.88;5065952;28;19924;-81
2021/04/19 10:37:15;;;;;;;;;;;;;;;13.89;100.00;99418.59;5056901;28;19969;-82
2021/04/19 10:40:15;;;;;;;;;;;;;;;13.96;100.00;99410.00;5068986;28;19929;-81
2021/04/19 10:43:10;;;;;;;;;;;;;;;14.09;100.00;99413.69;5071375;28;19928;-81
2021/04/19 10:45:56;;;;;;;;;;;;;;;14.02;100.00;99408.25;5068700;28;19924;-81
2021/04/19 10:48:44;;;;;;;;;;;;;;;14.35;100.00;99403.44;5033229;28;19928;-77
2021/04/19 10:51:22;;;;;;;;;;;;;;;14.53;100.00;99406.56;5063381;28;20007;-78
2021/04/19 10:53:50;;;;;;;;;;;;;;;14.53;100.00;99392.50;5063304;28;20018;-82
2021/04/19 10:56:28;;;;;;;;;;;;;;;13.94;100.00;99390.00;5067146;28;19932;-76
2021/04/19 10:59:09;;;;;;;;;;;;;;;14.04;100.00;99399.41;5053367;28;19924;-77
2021/04/19 11:01:59;;;;;;;;;;;;;;;14.10;100.00;99392.03;5054205;28;19925;-77
2021/04/19 11:05:06;;;;;;;;;;;;;;;14.08;100.00;99389.66;5061101;28;19929;-78
2021/04/19 11:07:44;;;;;;;;;;;;;;;14.16;100.00;99390.25;5069840;28;20023;-85
2021/04/19 11:10:27;;;;;;;;;;;;;;;14.32;100.00;99379.03;5046973;28;20015;-84
2021/04/19 11:13:14;;;;;;;;;;;;;;;14.45;100.00;99374.25;5068339;28;20394;-84
2021/04/19 11:16:06;;;;;;;;;;;;;;;13.76;100.00;99372.78;5035631;28;19929;-75
2021/04/19 11:18:54;;;;;;;;;;;;;;;13.53;100.00;99369.31;5041971;28;19998;-75
2021/04/19 11:21:41;;;;;;;;;;;;;;;13.54;100.00;99365.28;5072346;28;19924;-82
2021/04/19 11:24:36;;;;;;;;;;;;;;;13.22;100.00;99374.44;5054920;28;19928;-77
2021/04/19 11:27:27;;;;;;;;;;;;;;;13.53;100.00;99372.13;5070348;28;19925;-77
2021/04/19 11:30:16;;;;;;;;;;;;;;;13.54;100.00;99365.28;5060821;28;19960;-78
2021/04/19 11:32:44;;;;;;;;;;;;;;;13.84;100.00;99374.16;5070512;28;19932;-77
2021/04/19 11:35:24;;;;;;;;;;;;;;;13.00;100.00;99369.69;5057233;28;20628;-78
2021/04/19 11:41:12;;;;;;;;;;;;;;;13.62;100.00;99372.31;5069168;28;19933;-73
2021/04/19 11:43:38;;;;;;;;;;;;;;;13.88;100.00;99362.84;5071190;28;20349;-75
2021/04/19 11:46:13;;;;;;;;;;;;;;;14.12;100.00;99372.69;5070352;28;20548;-79
2021/04/19 11:48:46;;;;;;;;;;;;;;;14.03;100.00;99364.09;5071095;28;19924;-78
2021/04/19 11:51:31;;;;;;;;;;;;;;;13.85;100.00;99363.72;5066023;28;19928;-75
2021/04/19 11:54:20;;;;;;;;;;;;;;;14.28;100.00;99362.25;5051125;28;19932;-75
2021/04/19 11:57:03;;;;;;;;;;;;;;;14.36;100.00;99354.41;5069425;28;19929;-77
2021/04/19 11:59:41;;;;;;;;;;;;;;;14.14;100.00;99359.00;5069731;28;20322;-77
2021/04/19 12:02:26;;;;;;;;;;;;;;;14.23;100.00;99356.34;5068824;28;20322;-77
2021/04/19 12:05:12;;;;;;;;;;;;;;;14.14;100.00;99351.34;5069782;28;19969;-77
2021/04/19 12:08:00;;;;;;;;;;;;;;;13.93;100.00;99359.53;5050488;28;19928;-77
2021/04/19 12:10:53;;;;;;;;;;;;;;;13.92;100.00;99343.88;5059603;28;19924;-77
2021/04/19 12:13:42;;;;;;;;;;;;;;;13.90;100.00;99346.34;5070517;28;20407;-81
2021/04/19 12:16:21;;;;;;;;;;;;;;;14.22;100.00;99349.94;5064713;28;19935;-77
2021/04/19 12:19:05;;;;;;;;;;;;;;;13.93;100.00;99353.91;5070373;28;20502;-77
2021/04/19 12:25:16;;;;;;;;;;;;;;;13.94;100.00;99349.88;5051463;28;19924;-75
2021/04/19 12:28:04;;;;;;;;;;;;;;;14.20;100.00;99346.78;5064309;28;20015;-75
2021/04/19 12:30:52;;;;;;;;;;;;;;;14.19;100.00;99342.38;5052326;28;19936;-76
2021/04/19 12:33:35;;;;;;;;;;;;;;;13.99;100.00;99338.09;5056003;28;19925;-75
2021/04/19 12:36:19;;;;;;;;;;;;;;;14.22;100.00;99343.53;5069989;28;19952;-76
2021/04/19 12:39:06;;;;;;;;;;;;;;;14.53;100.00;99336.28;5070868;28;20506;-75
2021/04/19 12:41:51;;;;;;;;;;;;;;;14.33;100.00;99333.59;5068416;28;19925;-75
2021/04/19 12:44:34;;;;;;;;;;;;;;;14.03;100.00;99333.19;5064951;28;19974;-75
2021/04/19 12:47:16;;;;;;;;;;;;;;;14.36;100.00;99337.53;5064313;28;19982;-75
2021/04/19 12:50:03;;;;;;;;;;;;;;;14.33;100.00;99332.81;5036813;28;19928;-75
2021/04/19 12:52:34;;;;;;;;;;;;;;;14.39;100.00;99325.41;5045216;28;20018;-75
2021/04/19 12:55:01;;;;;;;;;;;;;;;14.31;100.00;99335.28;5071324;28;19932;-75
2021/04/19 12:57:27;;;;;;;;;;;;;;;14.03;100.00;99324.75;5058857;28;19924;-75
2021/04/19 12:59:54;;;;;;;;;;;;;;;14.45;100.00;99329.25;5055901;28;19954;-75
2021/04/19 13:02:21;;;;;;;;;;;;;;;14.02;100.00;99318.34;5073677;28;19939;-75
2021/04/19 13:04:47;;;;;;;;;;;;;;;14.37;100.00;99327.91;5073703;28;19924;-75
2021/04/19 13:07:14;;;;;;;;;;;;;;;14.15;100.00;99321.22;5073854;28;19933;-75
2021/04/19 13:09:40;;;;;;;;;;;;;;;14.26;100.00;99316.16;5073676;28;20062;-75
2021/04/19 13:12:08;;;;;;;;;;;;;;;14.47;100.00;99315.56;5044556;28;19924;-75
2021/04/19 13:14:41;;;;;;;;;;;;;;;14.31;100.00;99319.19;5061564;28;20415;-75
2021/04/19 13:17:10;;;;;;;;;;;;;;;14.53;100.00;99313.78;5073534;28;19931;-75
2021/04/19 13:19:41;;;;;;;;;;;;;;;14.38;100.00;99304.16;5073693;28;19925;-75